createdAt,value
2022-12-22T00:00:20.161Z,5.20
2022-12-22T00:04:41.035Z,2.42
2022-12-22T00:09:05.484Z,1.63
2022-12-22T00:13:30.038Z,4.78
2022-12-22T00:17:50.046Z,3.58
2022-12-22T00:22:10.275Z,1.75
2022-12-22T00:26:30.163Z,3.40
2022-12-22T00:30:50.004Z,3.13
2022-12-22T00:35:10.534Z,2.85
2022-12-22T00:39:31.430Z,3.17
2022-12-22T00:43:51.551Z,3.83
2022-12-22T00:48:11.726Z,3.28
2022-12-22T00:52:31.818Z,4.07
2022-12-22T00:56:51.869Z,3.15
2022-12-22T01:01:11.839Z,3.80
2022-12-22T01:05:31.663Z,7.57
2022-12-22T01:09:51.573Z,4.63
2022-12-22T01:14:11.730Z,4.07
2022-12-22T01:18:32.365Z,4.18
2022-12-22T01:22:52.512Z,3.95
2022-12-22T01:27:12.720Z,5.05
2022-12-22T01:31:48.405Z,4.07
2022-12-22T01:36:08.181Z,3.88
2022-12-22T01:40:34.197Z,5.07
2022-12-22T01:44:54.206Z,3.40
2022-12-22T01:49:14.430Z,3.33
2022-12-22T01:53:37.511Z,2.70
2022-12-22T01:57:57.814Z,2.47
2022-12-22T02:02:17.992Z,3.20
2022-12-22T02:06:54.595Z,4.15
2022-12-22T02:11:32.705Z,5.25
2022-12-22T02:16:09.924Z,2.47
2022-12-22T02:20:38.947Z,2.80
2022-12-22T02:25:09.599Z,2.58
2022-12-22T02:29:31.552Z,3.80
2022-12-22T02:33:52.215Z,2.20
2022-12-22T02:38:34.688Z,1.88
2022-12-22T02:43:15.583Z,3.05
2022-12-22T02:47:40.276Z,4.32
2022-12-22T02:52:06.369Z,2.08
2022-12-22T02:56:27.665Z,1.35
2022-12-22T03:00:48.208Z,1.85
2022-12-22T03:05:08.263Z,2.60
2022-12-22T03:09:28.033Z,2.63
2022-12-22T03:13:48.173Z,1.48
2022-12-22T03:18:08.425Z,2.88
2022-12-22T03:22:28.498Z,2.38
2022-12-22T03:26:30.172Z,2.42
2022-12-22T03:30:31.728Z,3.83
2022-12-22T03:34:33.112Z,2.50
2022-12-22T03:38:34.821Z,2.10
2022-12-22T03:47:58.428Z,1.38
2022-12-22T03:51:59.753Z,1.90
2022-12-22T03:56:07.276Z,1.65
2022-12-22T04:00:09.588Z,2.50
2022-12-22T04:04:12.011Z,2.03
2022-12-22T04:08:13.392Z,1.63
2022-12-22T04:12:33.462Z,1.90
2022-12-22T04:16:34.876Z,1.27
2022-12-22T04:20:36.285Z,1.80
2022-12-22T04:24:37.673Z,1.33
2022-12-22T04:28:39.084Z,1.63
2022-12-22T04:32:40.565Z,1.45
2022-12-22T04:36:41.957Z,2.08
2022-12-22T04:40:43.473Z,2.65
2022-12-22T04:44:44.878Z,2.05
2022-12-22T04:48:46.277Z,2.50
2022-12-22T04:52:47.677Z,2.92
2022-12-22T04:56:50.352Z,3.80
2022-12-22T05:00:52.054Z,1.77
2022-12-22T05:04:53.453Z,1.52
2022-12-22T05:08:54.809Z,3.15
2022-12-22T05:12:56.400Z,1.35
2022-12-22T05:16:57.848Z,1.10
2022-12-22T05:21:02.799Z,3.53
2022-12-22T05:25:04.594Z,3.00
2022-12-22T05:29:05.944Z,3.70
2022-12-22T05:33:07.350Z,4.20
2022-12-22T05:37:08.724Z,4.03
2022-12-22T05:41:10.275Z,5.15
2022-12-22T05:45:16.939Z,2.72
2022-12-22T05:49:19.207Z,3.92
2022-12-22T05:53:20.619Z,2.80
2022-12-22T05:57:22.504Z,5.00
2022-12-22T06:01:23.902Z,5.47
2022-12-22T06:05:25.610Z,4.18
2022-12-22T06:09:26.961Z,3.33
2022-12-22T06:13:28.377Z,4.15
2022-12-22T06:17:29.767Z,6.57
2022-12-22T06:21:31.162Z,3.33
2022-12-22T06:25:32.593Z,5.43
2022-12-22T06:29:34.004Z,4.00
2022-12-22T06:33:35.373Z,6.43
2022-12-22T06:37:36.929Z,5.32
2022-12-22T06:41:56.905Z,9.95
2022-12-22T06:45:58.429Z,3.50
2022-12-22T06:49:59.863Z,2.97
2022-12-22T06:54:01.254Z,8.63
2022-12-22T06:58:03.063Z,7.30
2022-12-22T07:02:04.540Z,9.05
2022-12-22T07:06:06.426Z,7.18
2022-12-22T07:10:08.434Z,10.38
2022-12-22T07:14:10.572Z,6.32
2022-12-22T07:18:12.271Z,9.30
2022-12-22T07:22:13.762Z,8.35
2022-12-22T07:26:15.260Z,8.73
2022-12-22T07:30:16.671Z,8.07
2022-12-22T07:34:18.305Z,8.50
2022-12-22T07:38:19.653Z,10.75
2022-12-22T07:42:39.673Z,6.97
2022-12-22T07:46:41.231Z,9.75
2022-12-22T07:50:42.632Z,5.72
2022-12-22T07:54:44.062Z,5.30
2022-12-22T07:58:45.473Z,6.68
2022-12-22T08:02:51.690Z,5.80
2022-12-22T08:06:53.515Z,4.70
2022-12-22T08:10:54.964Z,5.82
2022-12-22T08:14:56.398Z,6.55
2022-12-22T08:18:57.797Z,6.55
2022-12-22T08:22:59.193Z,7.72
2022-12-22T08:27:04.009Z,10.32
2022-12-22T08:31:05.649Z,8.63
2022-12-22T08:35:08.572Z,11.35
2022-12-22T08:39:10.729Z,6.43
2022-12-22T08:43:12.441Z,8.25
2022-12-22T08:47:17.225Z,6.13
2022-12-22T08:51:18.849Z,3.67
2022-12-22T08:55:20.246Z,6.70
2022-12-22T08:59:21.599Z,9.63
2022-12-22T09:03:23.171Z,7.80
2022-12-22T09:07:24.636Z,7.45
2022-12-22T09:11:27.069Z,9.38
2022-12-22T09:15:28.455Z,5.88
2022-12-22T09:19:29.851Z,7.22
2022-12-22T09:23:31.957Z,8.13
2022-12-22T09:27:33.453Z,9.20
2022-12-22T09:31:34.927Z,6.32
2022-12-22T09:35:41.129Z,5.28
2022-12-22T09:39:42.700Z,4.75
2022-12-22T09:43:44.179Z,6.93
2022-12-22T09:47:53.836Z,7.07
2022-12-22T09:51:57.798Z,5.18
2022-12-22T09:55:59.332Z,8.32
2022-12-22T10:00:18.832Z,6.47
2022-12-22T10:04:45.654Z,9.02
2022-12-22T10:08:47.081Z,7.27
2022-12-22T10:12:49.693Z,6.22
2022-12-22T10:17:20.098Z,5.03
2022-12-22T10:21:23.113Z,7.68
2022-12-22T10:30:25.644Z,5.03
2022-12-22T10:34:27.022Z,10.68
2022-12-22T10:38:31.104Z,7.38
2022-12-22T10:42:35.077Z,6.80
2022-12-22T10:46:41.667Z,4.85
2022-12-22T10:50:47.303Z,5.82
2022-12-22T10:54:48.990Z,2.90
2022-12-22T10:59:10.616Z,8.30
2022-12-22T11:03:19.197Z,7.10
2022-12-22T11:07:24.436Z,5.07
2022-12-22T11:11:35.642Z,7.60
2022-12-22T11:15:59.081Z,6.35
2022-12-22T11:20:26.177Z,7.35
2022-12-22T11:24:48.707Z,3.42
2022-12-22T11:29:05.078Z,6.32
2022-12-22T11:33:22.992Z,3.33
2022-12-22T11:37:46.897Z,5.20
2022-12-22T11:42:36.286Z,4.22
2022-12-22T11:46:54.869Z,5.15
2022-12-22T11:51:11.252Z,2.25
2022-12-22T11:55:37.097Z,4.32
2022-12-22T11:59:57.277Z,3.65
2022-12-22T12:04:26.752Z,6.70
2022-12-22T12:08:34.038Z,5.40
2022-12-22T12:12:54.100Z,6.22
2022-12-22T12:17:00.757Z,2.28
2022-12-22T12:21:21.572Z,2.22
2022-12-22T12:25:45.582Z,6.57
2022-12-22T12:30:39.789Z,3.65
2022-12-22T12:39:08.102Z,2.95
2022-12-22T12:43:16.377Z,2.20
2022-12-22T12:47:38.487Z,3.15
2022-12-22T12:51:49.807Z,2.20
2022-12-22T12:55:52.890Z,2.63
2022-12-22T12:59:57.102Z,4.15
2022-12-22T13:04:04.528Z,3.47
2022-12-22T13:08:14.376Z,2.60
2022-12-22T13:12:54.537Z,2.08
2022-12-22T13:17:34.080Z,3.08
2022-12-22T13:21:52.761Z,5.20
2022-12-22T13:25:59.596Z,3.80
2022-12-22T13:30:01.051Z,3.90
2022-12-22T13:34:28.693Z,4.22
2022-12-22T13:42:37.124Z,2.90
2022-12-22T13:46:39.086Z,7.78
2022-12-22T13:50:53.219Z,3.72
2022-12-22T13:54:54.744Z,5.10
2022-12-22T13:58:59.542Z,4.13
2022-12-22T14:03:01.278Z,3.28
2022-12-22T14:07:16.239Z,4.85
2022-12-22T14:11:17.943Z,4.30
2022-12-22T14:15:20.165Z,5.35
2022-12-22T14:19:22.894Z,6.47
2022-12-22T14:23:27.697Z,3.67
2022-12-22T14:27:36.314Z,8.02
2022-12-22T14:32:01.590Z,4.60
2022-12-22T14:36:26.593Z,6.32
2022-12-22T14:40:39.285Z,6.70
2022-12-22T14:44:45.359Z,6.88
2022-12-22T14:48:47.491Z,7.20
2022-12-22T14:52:57.059Z,5.35
2022-12-22T14:57:31.014Z,11.15
2022-12-22T15:01:32.575Z,7.50
2022-12-22T15:05:39.093Z,10.02
2022-12-22T15:10:13.850Z,7.72
2022-12-22T15:14:01.999Z,7.82
2022-12-22T15:18:03.704Z,7.50
2022-12-22T15:22:07.733Z,4.72
2022-12-22T15:26:09.561Z,9.63
2022-12-22T15:30:13.761Z,7.38
2022-12-22T15:34:22.384Z,6.93
2022-12-22T15:38:25.286Z,9.20
2022-12-22T15:42:26.689Z,5.80
2022-12-22T15:46:28.163Z,7.85
2022-12-22T15:50:38.825Z,7.45
2022-12-22T15:54:40.751Z,10.02
2022-12-22T15:58:42.397Z,7.45
2022-12-22T16:02:43.983Z,13.35
2022-12-22T16:06:45.945Z,16.05
2022-12-22T16:10:47.466Z,12.45
2022-12-22T16:14:52.267Z,11.55
2022-12-22T16:18:54.159Z,8.70
2022-12-22T16:22:56.027Z,7.75
2022-12-22T16:26:57.943Z,7.38
2022-12-22T16:30:59.898Z,9.57
2022-12-22T16:35:15.777Z,13.55
2022-12-22T16:39:17.126Z,9.05
2022-12-22T16:43:51.380Z,9.82
2022-12-22T16:47:53.775Z,13.70
2022-12-22T16:51:55.517Z,12.05
2022-12-22T16:55:59.516Z,7.95
2022-12-22T17:00:00.862Z,10.27
2022-12-22T17:04:11.572Z,11.07
2022-12-22T17:08:21.126Z,18.10
2022-12-22T17:12:30.448Z,8.63
2022-12-22T17:16:32.160Z,15.63
2022-12-22T17:20:33.550Z,12.50
2022-12-22T17:24:34.924Z,11.98
2022-12-22T17:28:37.222Z,10.82
2022-12-22T17:32:38.586Z,11.00
2022-12-22T17:36:40.096Z,13.35
2022-12-22T17:40:41.993Z,13.82
2022-12-22T17:44:43.813Z,13.45
2022-12-22T17:48:45.431Z,12.20
2022-12-22T17:52:50.410Z,10.40
2022-12-22T17:56:54.957Z,16.30
2022-12-22T18:00:56.430Z,15.88
2022-12-22T18:04:57.860Z,14.00
2022-12-22T18:08:59.412Z,15.38
2022-12-22T18:13:01.454Z,17.83
2022-12-22T18:17:02.792Z,20.73
2022-12-22T18:21:07.177Z,12.68
2022-12-22T18:25:30.161Z,12.00
2022-12-22T18:29:32.163Z,16.33
2022-12-22T18:33:33.687Z,15.43
2022-12-22T18:37:35.192Z,17.02
2022-12-22T18:41:37.027Z,13.90
2022-12-22T18:45:38.767Z,15.98
2022-12-22T18:49:40.175Z,18.35
2022-12-22T18:53:41.846Z,14.00
2022-12-22T18:57:47.142Z,17.52
2022-12-22T19:01:48.785Z,12.95
2022-12-22T19:05:50.758Z,20.33
2022-12-22T19:09:52.245Z,21.42
2022-12-22T19:13:53.831Z,11.88
2022-12-22T19:17:55.553Z,16.30
2022-12-22T19:21:56.910Z,16.75
2022-12-22T19:26:08.516Z,18.13
2022-12-22T19:30:18.180Z,15.02
2022-12-22T19:34:20.748Z,13.68
2022-12-22T19:38:25.709Z,12.80
2022-12-22T19:42:30.973Z,12.95
2022-12-22T19:46:33.914Z,18.05
2022-12-22T19:50:35.384Z,9.48
2022-12-22T19:54:37.751Z,12.43
2022-12-22T19:58:40.137Z,14.25
2022-12-22T20:02:42.234Z,15.60
2022-12-22T20:06:43.633Z,15.68
2022-12-22T20:10:45.677Z,7.15
2022-12-22T20:14:47.024Z,10.00
2022-12-22T20:18:48.437Z,7.25
2022-12-22T20:22:52.153Z,10.98
2022-12-22T20:26:54.791Z,14.77
2022-12-22T20:30:56.880Z,11.30
2022-12-22T20:34:58.289Z,7.90
2022-12-22T20:39:01.213Z,6.30
2022-12-22T20:43:02.574Z,10.57
2022-12-22T20:47:03.979Z,4.97
2022-12-22T20:51:07.265Z,6.80
2022-12-22T20:55:10.591Z,9.38
2022-12-22T20:59:15.252Z,9.32
2022-12-22T21:03:17.184Z,7.35
2022-12-22T21:07:18.655Z,7.13
2022-12-22T21:11:20.234Z,5.35
2022-12-22T21:15:24.773Z,5.68
2022-12-22T21:19:26.218Z,7.32
2022-12-22T21:23:27.611Z,4.55
2022-12-22T21:27:30.961Z,9.75
2022-12-22T21:31:32.478Z,8.35
2022-12-22T21:35:35.785Z,8.48
2022-12-22T21:39:41.616Z,4.43
2022-12-22T21:43:43.094Z,7.25
2022-12-22T21:47:44.677Z,8.90
2022-12-22T21:51:47.133Z,7.07
2022-12-22T21:55:49.016Z,8.50
2022-12-22T21:59:50.432Z,11.30
2022-12-22T22:03:51.879Z,9.80
2022-12-22T22:07:53.837Z,10.15
2022-12-22T22:12:13.957Z,10.43
2022-12-22T22:16:16.063Z,7.68
2022-12-22T22:20:28.988Z,8.25
2022-12-22T22:24:31.211Z,6.28
2022-12-22T22:28:33.202Z,7.35
2022-12-22T22:32:34.609Z,7.15
2022-12-22T22:36:36.050Z,8.05
2022-12-22T22:40:37.739Z,12.52
2022-12-22T22:44:39.154Z,13.30
2022-12-22T22:48:40.468Z,4.47
2022-12-22T22:52:41.877Z,6.03
2022-12-22T22:56:43.287Z,6.40
2022-12-22T23:00:44.706Z,6.68
2022-12-22T23:04:46.050Z,3.75
2022-12-22T23:08:50.782Z,5.05
2022-12-22T23:12:52.147Z,7.20
2022-12-22T23:16:53.815Z,3.03
2022-12-22T23:21:02.014Z,2.60
2022-12-22T23:25:03.539Z,4.32
2022-12-22T23:29:05.189Z,5.13
2022-12-22T23:33:06.858Z,4.20
2022-12-22T23:37:10.996Z,4.60
2022-12-22T23:41:16.637Z,4.47
2022-12-22T23:45:18.001Z,3.72
2022-12-22T23:49:19.395Z,4.47
2022-12-22T23:53:20.790Z,3.33
2022-12-22T23:57:22.128Z,1.63
